createdAt,value
2022-10-31T00:00:23.793Z,12.09
2022-10-31T00:01:23.730Z,12.12
2022-10-31T00:02:23.780Z,12.12
2022-10-31T00:03:23.711Z,12.09
2022-10-31T00:04:23.704Z,12.17
2022-10-31T00:05:23.720Z,12.18
2022-10-31T00:06:23.672Z,12.15
2022-10-31T00:07:23.666Z,12.15
2022-10-31T00:08:23.651Z,12.17
2022-10-31T00:09:23.641Z,12.17
2022-10-31T00:10:23.631Z,12.13
2022-10-31T00:11:23.650Z,12.10
2022-10-31T00:12:23.613Z,12.13
2022-10-31T00:13:23.695Z,12.13
2022-10-31T00:14:23.582Z,12.18
2022-10-31T00:15:23.577Z,12.21
2022-10-31T00:16:23.563Z,12.28
2022-10-31T00:17:23.590Z,12.29
2022-10-31T00:18:23.541Z,12.31
2022-10-31T00:19:23.528Z,12.28
2022-10-31T00:20:23.521Z,12.27
2022-10-31T00:21:23.501Z,12.25
2022-10-31T00:22:23.501Z,12.24
2022-10-31T00:23:23.522Z,12.21
2022-10-31T00:24:23.470Z,12.20
2022-10-31T00:25:23.460Z,12.22
2022-10-31T00:26:23.451Z,12.25
2022-10-31T00:27:23.440Z,12.27
2022-10-31T00:28:23.439Z,12.29
2022-10-31T00:29:23.431Z,12.35
2022-10-31T00:30:23.408Z,12.31
2022-10-31T00:31:23.395Z,12.29
2022-10-31T00:32:23.385Z,12.27
2022-10-31T00:33:23.370Z,12.28
2022-10-31T00:34:23.381Z,12.22
2022-10-31T00:35:23.450Z,12.13
2022-10-31T00:36:23.343Z,12.09
2022-10-31T00:37:23.340Z,12.10
2022-10-31T00:38:23.311Z,12.07
2022-10-31T00:39:23.301Z,12.09
2022-10-31T00:40:23.313Z,12.07
2022-10-31T00:41:23.282Z,12.03
2022-10-31T00:42:23.271Z,11.99
2022-10-31T00:43:23.260Z,11.99
2022-10-31T00:44:23.250Z,12.00
2022-10-31T00:45:23.251Z,11.94
2022-10-31T00:46:23.228Z,11.91
2022-10-31T00:47:23.211Z,11.91
2022-10-31T00:48:23.200Z,11.88
2022-10-31T00:49:23.191Z,11.88
2022-10-31T00:50:23.181Z,11.88
2022-10-31T00:51:23.201Z,11.90
2022-10-31T00:52:23.160Z,11.90
2022-10-31T00:53:23.149Z,12.02
2022-10-31T00:54:23.140Z,12.12
2022-10-31T00:55:23.125Z,12.13
2022-10-31T00:56:23.119Z,12.20
2022-10-31T00:57:23.121Z,12.22
2022-10-31T00:58:23.091Z,12.20
2022-10-31T00:59:23.080Z,12.15
2022-10-31T01:00:23.071Z,12.09
2022-10-31T01:01:23.165Z,12.07
2022-10-31T01:02:23.164Z,12.07
2022-10-31T01:03:23.052Z,12.03
2022-10-31T01:04:23.031Z,12.04
2022-10-31T01:05:23.011Z,12.10
2022-10-31T01:06:23.000Z,12.13
2022-10-31T01:07:22.992Z,12.21
2022-10-31T01:08:23.000Z,12.25
2022-10-31T01:09:22.969Z,12.25
2022-10-31T01:10:22.958Z,12.18
2022-10-31T01:11:22.941Z,12.18
2022-10-31T01:12:22.939Z,12.10
2022-10-31T01:14:22.960Z,11.97
2022-10-31T01:15:22.903Z,11.95
2022-10-31T01:16:22.890Z,11.99
2022-10-31T01:17:22.880Z,12.07
2022-10-31T01:18:22.870Z,12.18
2022-10-31T01:19:22.853Z,12.18
2022-10-31T01:20:22.869Z,12.21
2022-10-31T01:21:22.830Z,12.21
2022-10-31T01:22:22.821Z,12.24
2022-10-31T01:23:22.816Z,12.27
2022-10-31T01:24:22.813Z,12.31
2022-10-31T01:25:22.784Z,12.32
2022-10-31T01:26:22.801Z,12.31
2022-10-31T01:27:22.760Z,12.31
2022-10-31T01:28:22.789Z,12.32
2022-10-31T01:29:22.742Z,12.40
2022-10-31T01:30:22.739Z,12.39
2022-10-31T01:31:22.722Z,12.37
2022-10-31T01:32:22.783Z,12.37
2022-10-31T01:33:22.700Z,12.40
2022-10-31T01:34:22.693Z,12.42
2022-10-31T01:35:22.674Z,12.47
2022-10-31T01:36:22.673Z,12.53
2022-10-31T01:37:22.650Z,12.54
2022-10-31T01:38:22.661Z,12.50
2022-10-31T01:39:22.651Z,12.47
2022-10-31T01:40:22.622Z,12.42
2022-10-31T01:41:22.612Z,12.45
2022-10-31T01:42:22.604Z,12.40
2022-10-31T01:43:22.647Z,12.40
2022-10-31T01:44:22.581Z,12.39
2022-10-31T01:45:22.560Z,12.31
2022-10-31T01:46:22.560Z,12.31
2022-10-31T01:47:22.543Z,12.28
2022-10-31T01:48:22.550Z,12.21
2022-10-31T01:49:22.543Z,12.17
2022-10-31T01:50:22.511Z,12.12
2022-10-31T01:51:22.491Z,12.13
2022-10-31T01:52:22.490Z,12.12
2022-10-31T01:53:25.954Z,12.09
2022-10-31T01:54:22.463Z,12.06
2022-10-31T01:55:25.141Z,12.04
2022-10-31T01:56:22.443Z,12.03
2022-10-31T01:57:22.434Z,12.02
2022-10-31T01:58:22.425Z,11.97
2022-10-31T01:59:22.410Z,11.99
2022-10-31T02:00:22.419Z,11.97
2022-10-31T02:01:22.430Z,11.99
2022-10-31T02:02:22.473Z,11.95
2022-10-31T02:03:22.362Z,11.94
2022-10-31T02:04:22.352Z,12.00
2022-10-31T02:05:22.330Z,12.02
2022-10-31T02:06:22.355Z,12.04
2022-10-31T02:07:22.311Z,12.06
2022-10-31T02:08:22.309Z,12.06
2022-10-31T02:09:22.291Z,12.09
2022-10-31T02:10:22.280Z,12.06
2022-10-31T02:11:22.271Z,12.04
2022-10-31T02:12:22.282Z,12.04
2022-10-31T02:13:22.311Z,12.02
2022-10-31T02:14:22.241Z,11.95
2022-10-31T02:15:22.229Z,12.00
2022-10-31T02:16:22.223Z,12.00
2022-10-31T02:17:22.201Z,11.99
2022-10-31T02:18:22.212Z,11.91
2022-10-31T02:19:22.180Z,11.86
2022-10-31T02:20:22.171Z,11.84
2022-10-31T02:21:22.160Z,11.78
2022-10-31T02:22:22.151Z,11.77
2022-10-31T02:23:22.132Z,11.73
2022-10-31T02:24:22.150Z,11.69
2022-10-31T02:25:22.111Z,11.65
2022-10-31T02:26:22.100Z,11.62
2022-10-31T02:27:22.090Z,11.55
2022-10-31T02:28:22.088Z,11.62
2022-10-31T02:29:22.092Z,11.63
2022-10-31T02:30:22.080Z,11.69
2022-10-31T02:31:22.050Z,11.73
2022-10-31T02:32:22.039Z,11.73
2022-10-31T02:33:22.022Z,11.77
2022-10-31T02:34:22.012Z,11.80
2022-10-31T02:35:22.048Z,11.83
2022-10-31T02:36:21.991Z,11.84
2022-10-31T02:37:21.990Z,11.83
2022-10-31T02:38:21.976Z,11.83
2022-10-31T02:39:21.958Z,11.86
2022-10-31T02:40:21.949Z,11.94
2022-10-31T02:41:21.950Z,11.94
2022-10-31T02:42:21.921Z,11.97
2022-10-31T02:43:21.911Z,11.99
2022-10-31T02:44:21.900Z,12.00
2022-10-31T02:45:21.890Z,11.99
2022-10-31T02:46:21.901Z,12.04
2022-10-31T02:47:21.869Z,12.09
2022-10-31T02:48:21.859Z,12.09
2022-10-31T02:49:21.840Z,12.03
2022-10-31T02:50:21.840Z,12.06
2022-10-31T02:51:21.821Z,12.04
2022-10-31T02:52:21.845Z,12.07
2022-10-31T02:53:21.801Z,12.06
2022-10-31T02:54:21.790Z,12.06
2022-10-31T02:55:21.771Z,12.06
2022-10-31T02:56:21.770Z,12.02
2022-10-31T02:57:21.752Z,12.04
2022-10-31T02:58:21.780Z,12.02
2022-10-31T02:59:21.750Z,12.06
2022-10-31T03:00:21.721Z,12.10
2022-10-31T03:01:21.790Z,12.13
2022-10-31T03:02:21.791Z,12.17
2022-10-31T03:03:21.701Z,12.20
2022-10-31T03:04:21.682Z,12.22
2022-10-31T03:05:21.663Z,12.21
2022-10-31T03:06:21.661Z,12.24
2022-10-31T03:07:21.750Z,12.24
2022-10-31T03:08:21.632Z,12.25
2022-10-31T03:09:21.640Z,12.25
2022-10-31T03:10:21.620Z,12.25
2022-10-31T03:11:21.602Z,12.27
2022-10-31T03:12:21.590Z,12.25
2022-10-31T03:14:21.570Z,12.24
2022-10-31T03:15:21.571Z,12.25
2022-10-31T03:16:21.542Z,12.21
2022-10-31T03:17:21.532Z,12.24
2022-10-31T03:18:21.520Z,12.24
2022-10-31T03:19:21.509Z,12.24
2022-10-31T03:20:21.491Z,12.24
2022-10-31T03:21:21.501Z,12.21
2022-10-31T03:22:21.471Z,12.22
2022-10-31T03:23:21.461Z,12.22
2022-10-31T03:24:21.451Z,12.13
2022-10-31T03:25:21.444Z,12.09
2022-10-31T03:26:21.452Z,12.18
2022-10-31T03:27:21.421Z,12.22
2022-10-31T03:28:21.404Z,12.25
2022-10-31T03:29:21.400Z,12.22
2022-10-31T03:30:21.382Z,12.20
2022-10-31T03:31:21.372Z,12.18
2022-10-31T03:32:21.375Z,12.10
2022-10-31T03:33:21.363Z,12.09
2022-10-31T03:34:21.341Z,12.03
2022-10-31T03:35:21.331Z,11.95
2022-10-31T03:36:21.321Z,11.86
2022-10-31T03:37:21.360Z,11.80
2022-10-31T03:38:21.299Z,11.73
2022-10-31T03:39:21.291Z,11.69
2022-10-31T03:40:21.271Z,11.62
2022-10-31T03:41:21.261Z,11.59
2022-10-31T03:42:21.252Z,11.59
2022-10-31T03:44:21.230Z,11.60
2022-10-31T03:45:21.220Z,11.57
2022-10-31T03:46:21.200Z,11.52
2022-10-31T03:47:21.191Z,11.51
2022-10-31T03:48:21.200Z,11.51
2022-10-31T03:49:21.170Z,11.48
2022-10-31T03:50:21.160Z,11.47
2022-10-31T03:51:21.155Z,11.44
2022-10-31T03:52:21.132Z,11.45
2022-10-31T03:53:21.151Z,11.44
2022-10-31T03:54:21.112Z,11.43
2022-10-31T03:55:21.110Z,11.44
2022-10-31T03:56:21.096Z,11.43
2022-10-31T03:57:21.094Z,11.43
2022-10-31T03:58:21.092Z,11.40
2022-10-31T03:59:21.071Z,11.36
2022-10-31T04:00:21.050Z,11.32
2022-10-31T04:01:21.147Z,11.26
2022-10-31T04:02:21.101Z,11.23
2022-10-31T04:03:21.011Z,11.26
2022-10-31T04:04:21.032Z,11.27
2022-10-31T04:05:21.000Z,11.32
2022-10-31T04:06:20.990Z,11.32
2022-10-31T04:07:20.972Z,11.36
2022-10-31T04:08:20.951Z,11.35
2022-10-31T04:09:20.951Z,11.32
2022-10-31T04:10:20.950Z,11.33
2022-10-31T04:11:20.931Z,11.36
2022-10-31T04:12:20.911Z,11.40
2022-10-31T04:13:20.912Z,11.41
2022-10-31T04:14:20.891Z,11.41
2022-10-31T04:15:20.911Z,11.43
2022-10-31T04:16:20.901Z,11.43
2022-10-31T04:17:20.867Z,11.43
2022-10-31T04:18:20.841Z,11.40
2022-10-31T04:19:20.838Z,11.36
2022-10-31T04:20:20.821Z,11.32
2022-10-31T04:21:20.830Z,11.32
2022-10-31T04:22:20.852Z,11.30
2022-10-31T04:23:20.795Z,11.32
2022-10-31T04:24:20.791Z,11.32
2022-10-31T04:25:20.770Z,11.27
2022-10-31T04:26:20.782Z,11.29
2022-10-31T04:27:20.750Z,11.25
2022-10-31T04:28:20.733Z,11.23
2022-10-31T04:29:20.731Z,11.22
2022-10-31T04:30:20.711Z,11.18
2022-10-31T04:31:20.710Z,11.19
2022-10-31T04:32:20.713Z,11.17
2022-10-31T04:33:20.681Z,11.18
2022-10-31T04:34:20.675Z,11.18
2022-10-31T04:35:20.661Z,11.19
2022-10-31T04:36:20.652Z,11.23
2022-10-31T04:37:20.661Z,11.26
2022-10-31T04:38:20.630Z,11.27
2022-10-31T04:39:24.266Z,11.29
2022-10-31T04:40:21.601Z,11.30
2022-10-31T04:41:20.589Z,11.33
2022-10-31T04:42:20.582Z,11.40
2022-10-31T04:44:20.559Z,11.43
2022-10-31T04:45:21.408Z,11.45
2022-10-31T04:46:20.531Z,11.45
2022-10-31T04:47:20.530Z,11.51
2022-10-31T04:48:20.539Z,11.51
2022-10-31T04:49:20.509Z,11.54
2022-10-31T04:50:20.491Z,11.52
2022-10-31T04:51:20.480Z,11.50
2022-10-31T04:52:20.470Z,11.54
2022-10-31T04:53:20.459Z,11.54
2022-10-31T04:54:20.461Z,11.55
2022-10-31T04:55:20.557Z,11.62
2022-10-31T04:56:20.420Z,11.62
2022-10-31T04:57:20.419Z,11.60
2022-10-31T04:58:20.410Z,11.63
2022-10-31T04:59:20.410Z,11.70
2022-10-31T05:00:20.379Z,11.72
2022-10-31T05:01:20.523Z,11.73
2022-10-31T05:02:20.392Z,11.73
2022-10-31T05:03:20.349Z,11.77
2022-10-31T05:04:20.343Z,11.73
2022-10-31T05:05:20.339Z,11.73
2022-10-31T05:06:20.310Z,11.73
2022-10-31T05:07:20.310Z,11.69
2022-10-31T05:08:20.295Z,11.75
2022-10-31T05:09:20.280Z,11.78
2022-10-31T05:10:20.295Z,11.80
2022-10-31T05:11:20.259Z,11.80
2022-10-31T05:12:20.251Z,11.84
2022-10-31T05:14:20.230Z,11.87
2022-10-31T05:15:20.220Z,11.87
2022-10-31T05:16:20.231Z,11.87
2022-10-31T05:17:20.190Z,11.86
2022-10-31T05:18:20.181Z,11.86
2022-10-31T05:19:20.177Z,11.81
2022-10-31T05:20:20.160Z,11.80
2022-10-31T05:21:20.172Z,11.80
2022-10-31T05:22:20.154Z,11.80
2022-10-31T05:23:20.129Z,11.78
2022-10-31T05:24:20.110Z,11.77
2022-10-31T05:25:20.100Z,11.77
2022-10-31T05:26:20.089Z,11.75
2022-10-31T05:27:20.100Z,11.75
2022-10-31T05:28:20.073Z,11.72
2022-10-31T05:29:20.063Z,11.75
2022-10-31T05:30:20.059Z,11.72
2022-10-31T05:31:20.044Z,11.75
2022-10-31T05:32:20.040Z,11.77
2022-10-31T05:33:20.027Z,11.75
2022-10-31T05:34:29.697Z,11.75
2022-10-31T05:35:19.994Z,11.69
2022-10-31T05:36:19.985Z,11.68
2022-10-31T05:37:19.993Z,11.63
2022-10-31T05:38:19.954Z,11.59
2022-10-31T05:39:19.944Z,11.57
2022-10-31T05:40:19.934Z,11.55
2022-10-31T05:41:19.923Z,11.57
2022-10-31T05:42:19.919Z,11.52
2022-10-31T05:43:19.923Z,11.47
2022-10-31T05:44:19.893Z,11.52
2022-10-31T05:45:19.883Z,11.51
2022-10-31T05:46:19.933Z,11.51
2022-10-31T05:47:19.860Z,11.52
2022-10-31T05:48:19.865Z,11.57
2022-10-31T05:49:19.842Z,11.60
2022-10-31T05:50:19.824Z,11.62
2022-10-31T05:51:19.823Z,11.68
2022-10-31T05:52:19.804Z,11.69
2022-10-31T05:53:19.873Z,11.72
2022-10-31T05:54:19.793Z,11.72
2022-10-31T05:55:19.772Z,11.70
2022-10-31T05:56:19.754Z,11.72
2022-10-31T05:57:19.744Z,11.75
2022-10-31T05:58:19.735Z,11.80
2022-10-31T05:59:19.752Z,11.75
2022-10-31T06:00:19.711Z,11.73
2022-10-31T06:01:19.751Z,11.81
2022-10-31T06:02:19.684Z,11.87
2022-10-31T06:03:19.682Z,11.87
2022-10-31T06:04:19.677Z,11.84
2022-10-31T06:05:19.682Z,11.81
2022-10-31T06:06:19.650Z,11.83
2022-10-31T06:07:19.633Z,11.87
2022-10-31T06:08:19.623Z,11.88
2022-10-31T06:09:19.613Z,11.87
2022-10-31T06:10:19.594Z,11.94
2022-10-31T06:11:19.613Z,11.99
2022-10-31T06:12:19.576Z,12.06
2022-10-31T06:13:19.572Z,12.07
2022-10-31T06:14:19.555Z,12.09
2022-10-31T06:15:23.781Z,12.04
2022-10-31T06:16:20.557Z,12.09
2022-10-31T06:17:19.522Z,12.04
2022-10-31T06:18:19.503Z,12.02
2022-10-31T06:19:19.510Z,11.97
2022-10-31T06:20:19.483Z,12.04
2022-10-31T06:21:19.500Z,12.07
2022-10-31T06:22:19.483Z,12.09
2022-10-31T06:23:19.454Z,12.10
2022-10-31T06:24:19.444Z,12.15
2022-10-31T06:25:19.433Z,12.07
2022-10-31T06:26:19.414Z,12.02
2022-10-31T06:27:19.443Z,11.99
2022-10-31T06:28:19.401Z,12.00
2022-10-31T06:29:19.384Z,12.04
2022-10-31T06:30:19.383Z,12.03
2022-10-31T06:31:19.373Z,12.04
2022-10-31T06:32:19.354Z,12.04
2022-10-31T06:33:19.370Z,12.04
2022-10-31T06:34:19.331Z,12.07
2022-10-31T06:35:19.323Z,12.09
2022-10-31T06:36:19.372Z,12.15
2022-10-31T06:37:19.303Z,12.21
2022-10-31T06:38:19.293Z,12.24
2022-10-31T06:39:19.301Z,12.25
2022-10-31T06:40:19.261Z,12.24
2022-10-31T06:41:19.253Z,12.27
2022-10-31T06:42:19.242Z,12.29
2022-10-31T06:43:19.235Z,12.36
2022-10-31T06:44:19.213Z,12.36
2022-10-31T06:45:19.224Z,12.31
2022-10-31T06:46:19.193Z,12.27
2022-10-31T06:47:19.184Z,12.24
2022-10-31T06:48:19.500Z,12.22
2022-10-31T06:49:19.164Z,12.20
2022-10-31T06:50:19.153Z,12.24
2022-10-31T06:51:19.163Z,12.21
2022-10-31T06:52:19.123Z,12.22
2022-10-31T06:53:19.125Z,12.28
2022-10-31T06:54:19.103Z,12.32
2022-10-31T06:55:19.093Z,12.43
2022-10-31T06:56:19.082Z,12.50
2022-10-31T06:57:19.098Z,12.55
2022-10-31T06:58:19.063Z,12.60
2022-10-31T06:59:19.059Z,12.58
2022-10-31T07:00:19.042Z,12.61
2022-10-31T07:01:19.118Z,12.55
2022-10-31T07:02:19.080Z,12.65
2022-10-31T07:03:19.023Z,12.72
2022-10-31T07:04:18.992Z,12.73
2022-10-31T07:05:18.983Z,12.79
2022-10-31T07:06:18.971Z,12.85
2022-10-31T07:07:18.962Z,12.78
2022-10-31T07:08:18.976Z,12.79
2022-10-31T07:09:18.944Z,12.82
2022-10-31T07:10:18.926Z,12.86
2022-10-31T07:11:18.914Z,12.85
2022-10-31T07:12:18.908Z,12.91
2022-10-31T07:13:18.893Z,12.91
2022-10-31T07:14:18.902Z,12.94
2022-10-31T07:15:18.873Z,12.95
2022-10-31T07:16:18.853Z,12.95
2022-10-31T07:17:18.844Z,12.90
2022-10-31T07:18:18.834Z,12.94
2022-10-31T07:19:18.838Z,13.01
2022-10-31T07:20:18.826Z,12.98
2022-10-31T07:21:18.805Z,13.04
2022-10-31T07:22:18.792Z,13.08
2022-10-31T07:23:18.782Z,13.15
2022-10-31T07:24:18.763Z,13.23
2022-10-31T07:25:18.782Z,13.31
2022-10-31T07:26:18.743Z,13.35
2022-10-31T07:27:18.735Z,13.35
2022-10-31T07:28:18.723Z,13.37
2022-10-31T07:29:18.727Z,13.38
2022-10-31T07:30:18.702Z,13.46
2022-10-31T07:31:18.710Z,13.44
2022-10-31T07:32:18.676Z,13.35
2022-10-31T07:33:18.665Z,13.31
2022-10-31T07:34:18.656Z,13.30
2022-10-31T07:35:18.642Z,13.28
2022-10-31T07:36:18.633Z,13.31
2022-10-31T07:37:18.637Z,13.37
2022-10-31T07:38:18.614Z,13.38
2022-10-31T07:39:18.594Z,13.41
2022-10-31T07:40:18.586Z,13.56
2022-10-31T07:41:18.573Z,13.47
2022-10-31T07:42:18.564Z,13.54
2022-10-31T07:43:18.575Z,13.60
2022-10-31T07:44:18.545Z,13.63
2022-10-31T07:45:18.524Z,13.71
2022-10-31T07:46:18.526Z,13.78
2022-10-31T07:47:18.506Z,13.83
2022-10-31T07:48:18.521Z,13.85
2022-10-31T07:49:18.485Z,13.90
2022-10-31T07:50:18.474Z,14.03
2022-10-31T07:51:18.462Z,14.26
2022-10-31T07:52:18.454Z,14.43
2022-10-31T07:53:18.434Z,14.48
2022-10-31T07:54:18.445Z,14.68
2022-10-31T07:55:18.414Z,14.78
2022-10-31T07:56:18.413Z,14.91
2022-10-31T07:57:22.710Z,15.10
2022-10-31T07:58:19.384Z,15.27
2022-10-31T07:59:18.395Z,15.33
2022-10-31T08:00:18.365Z,15.39
2022-10-31T08:01:18.353Z,15.65
2022-10-31T08:02:18.346Z,15.86
2022-10-31T08:03:18.325Z,15.94
2022-10-31T08:04:18.324Z,15.97
2022-10-31T08:05:18.331Z,16.26
2022-10-31T08:06:18.296Z,16.65
2022-10-31T08:07:18.284Z,16.97
2022-10-31T08:08:18.275Z,16.90
2022-10-31T08:09:18.255Z,16.83
2022-10-31T08:10:18.262Z,17.12
2022-10-31T08:11:18.256Z,16.94
2022-10-31T08:12:18.227Z,16.68
2022-10-31T08:13:18.216Z,16.58
2022-10-31T08:14:18.206Z,16.58
2022-10-31T08:15:18.187Z,16.86
2022-10-31T08:16:18.204Z,17.11
2022-10-31T08:17:18.169Z,17.46
2022-10-31T08:18:18.156Z,17.52
2022-10-31T08:19:18.148Z,17.26
2022-10-31T08:20:18.139Z,17.71
2022-10-31T08:21:18.126Z,17.64
2022-10-31T08:22:18.135Z,17.48
2022-10-31T08:23:18.108Z,17.42
2022-10-31T08:24:18.094Z,17.67
2022-10-31T08:25:18.077Z,17.70
2022-10-31T08:26:18.067Z,17.56
2022-10-31T08:27:18.058Z,17.65
2022-10-31T08:28:18.079Z,17.56
2022-10-31T08:29:18.034Z,17.92
2022-10-31T08:30:18.027Z,18.00
2022-10-31T08:31:18.008Z,18.37
2022-10-31T08:32:18.008Z,18.50
2022-10-31T08:33:17.989Z,18.50
2022-10-31T08:34:18.007Z,18.47
2022-10-31T08:35:17.969Z,18.56
2022-10-31T08:36:17.957Z,18.66
2022-10-31T08:37:17.949Z,18.77
2022-10-31T08:38:17.937Z,18.68
2022-10-31T08:39:17.926Z,18.77
2022-10-31T08:40:17.937Z,18.88
2022-10-31T08:41:17.920Z,19.04
2022-10-31T08:42:17.899Z,19.18
2022-10-31T08:43:17.900Z,19.14
2022-10-31T08:44:17.868Z,18.83
2022-10-31T08:45:17.850Z,18.96
2022-10-31T08:46:17.873Z,19.30
2022-10-31T08:47:17.830Z,19.59
2022-10-31T08:48:17.819Z,19.81
2022-10-31T08:49:17.810Z,19.47
2022-10-31T08:50:17.800Z,19.44
2022-10-31T08:51:17.810Z,19.08
2022-10-31T08:52:17.778Z,18.80
2022-10-31T08:53:17.773Z,18.89
2022-10-31T08:54:17.750Z,18.86
2022-10-31T08:55:17.745Z,18.80
2022-10-31T08:56:17.732Z,19.07
2022-10-31T08:57:17.731Z,19.18
2022-10-31T08:58:17.711Z,19.00
2022-10-31T08:59:17.691Z,19.39
2022-10-31T09:00:17.681Z,19.70
2022-10-31T09:01:17.736Z,20.06
2022-10-31T09:02:17.760Z,20.36
2022-10-31T09:03:17.652Z,20.51
2022-10-31T09:04:17.642Z,20.80
2022-10-31T09:05:17.628Z,20.78
2022-10-31T09:06:17.647Z,20.82
2022-10-31T09:07:21.437Z,20.92
2022-10-31T09:08:17.621Z,20.75
2022-10-31T09:09:17.583Z,20.55
2022-10-31T09:10:17.571Z,20.13
2022-10-31T09:11:17.553Z,20.11
2022-10-31T09:12:17.545Z,20.06
2022-10-31T09:13:17.533Z,20.25
2022-10-31T09:14:17.545Z,20.44
2022-10-31T09:15:17.503Z,20.72
2022-10-31T09:16:17.502Z,20.28
2022-10-31T09:17:17.493Z,20.36
2022-10-31T09:18:17.485Z,20.02
2022-10-31T09:19:17.473Z,19.89
2022-10-31T09:20:17.474Z,20.06
2022-10-31T09:21:17.450Z,19.91
2022-10-31T09:22:17.443Z,19.52
2022-10-31T09:23:17.424Z,19.44
2022-10-31T09:24:17.417Z,19.24
2022-10-31T09:25:17.427Z,19.34
2022-10-31T09:26:17.397Z,19.41
2022-10-31T09:27:17.374Z,19.18
2022-10-31T09:28:17.374Z,18.88
2022-10-31T09:29:17.357Z,18.81
2022-10-31T09:30:17.355Z,18.55
2022-10-31T09:31:17.355Z,18.31
2022-10-31T09:32:17.327Z,18.11
2022-10-31T09:33:17.307Z,17.97
2022-10-31T09:34:17.303Z,17.87
2022-10-31T09:35:19.263Z,18.04
2022-10-31T09:36:17.276Z,18.19
2022-10-31T09:37:17.288Z,18.40
2022-10-31T09:38:17.255Z,18.44
2022-10-31T09:39:17.245Z,18.45
2022-10-31T09:40:17.236Z,18.49
2022-10-31T09:41:17.216Z,18.55
2022-10-31T09:42:17.215Z,18.70
2022-10-31T09:43:17.218Z,18.60
2022-10-31T09:44:17.189Z,18.65
2022-10-31T09:45:17.176Z,18.78
2022-10-31T09:46:17.167Z,18.81
2022-10-31T09:47:17.156Z,18.60
2022-10-31T09:48:17.148Z,18.53
2022-10-31T09:49:17.213Z,18.40
2022-10-31T09:50:17.127Z,18.22
2022-10-31T09:51:17.116Z,18.05
2022-10-31T09:52:17.109Z,17.98
2022-10-31T09:53:17.089Z,18.10
2022-10-31T09:54:17.086Z,18.00
2022-10-31T09:55:17.090Z,17.90
2022-10-31T09:56:17.058Z,17.64
2022-10-31T09:57:17.048Z,17.49
2022-10-31T09:58:17.040Z,17.54
2022-10-31T09:59:17.029Z,17.67
2022-10-31T10:00:17.018Z,17.80
2022-10-31T10:01:17.090Z,17.95
2022-10-31T10:02:17.038Z,18.03
2022-10-31T10:03:16.983Z,18.00
2022-10-31T10:04:20.660Z,18.11
2022-10-31T10:05:16.958Z,17.89
2022-10-31T10:06:16.970Z,17.82
2022-10-31T10:07:16.938Z,17.86
2022-10-31T10:08:16.929Z,17.97
2022-10-31T10:09:16.935Z,17.89
2022-10-31T10:10:16.914Z,18.00
2022-10-31T10:11:16.889Z,18.01
2022-10-31T10:12:16.900Z,18.16
2022-10-31T10:13:16.868Z,18.40
2022-10-31T10:14:16.862Z,18.50
2022-10-31T10:15:16.841Z,18.55
2022-10-31T10:16:16.843Z,18.58
2022-10-31T10:17:16.841Z,18.59
2022-10-31T10:18:16.810Z,18.71
2022-10-31T10:19:16.801Z,18.84
2022-10-31T10:20:19.814Z,18.92
2022-10-31T10:21:16.779Z,18.83
2022-10-31T10:22:16.772Z,18.77
2022-10-31T10:23:16.771Z,18.81
2022-10-31T10:24:16.751Z,18.88
2022-10-31T10:25:16.739Z,18.92
2022-10-31T10:26:16.736Z,18.99
2022-10-31T10:27:19.216Z,19.19
2022-10-31T10:28:17.729Z,19.30
2022-10-31T10:29:16.692Z,19.09
2022-10-31T10:30:16.680Z,19.11
2022-10-31T10:31:16.680Z,18.98
2022-10-31T10:32:16.665Z,18.95
2022-10-31T10:33:16.657Z,19.02
2022-10-31T10:34:16.691Z,19.09
2022-10-31T10:35:16.623Z,19.22
2022-10-31T10:36:16.612Z,19.26
2022-10-31T10:37:16.602Z,19.36
2022-10-31T10:38:16.594Z,19.47
2022-10-31T10:39:16.632Z,19.64
2022-10-31T10:40:16.579Z,19.74
2022-10-31T10:41:16.562Z,19.67
2022-10-31T10:42:16.555Z,19.71
2022-10-31T10:43:16.544Z,19.67
2022-10-31T10:44:16.537Z,19.70
2022-10-31T10:45:16.544Z,19.84
2022-10-31T10:46:16.511Z,19.85
2022-10-31T10:47:16.503Z,19.89
2022-10-31T10:48:16.493Z,19.84
2022-10-31T10:49:16.474Z,19.81
2022-10-31T10:50:16.467Z,19.76
2022-10-31T10:51:25.709Z,19.54
2022-10-31T10:53:17.434Z,19.73
2022-10-31T10:54:16.424Z,19.71
2022-10-31T10:55:16.404Z,19.77
2022-10-31T10:56:16.404Z,19.74
2022-10-31T10:57:16.403Z,19.73
2022-10-31T10:58:16.375Z,19.79
2022-10-31T10:59:16.364Z,19.96
2022-10-31T11:00:16.356Z,20.11
2022-10-31T11:02:16.355Z,20.19
2022-10-31T11:03:16.317Z,20.19
2022-10-31T11:04:16.306Z,20.31
2022-10-31T11:05:16.299Z,20.40
2022-10-31T11:06:16.285Z,20.48
2022-10-31T11:07:16.274Z,20.25
2022-10-31T11:08:16.296Z,20.21
2022-10-31T11:09:16.247Z,20.21
2022-10-31T11:10:16.244Z,20.19
2022-10-31T11:11:16.229Z,20.21
2022-10-31T11:12:16.216Z,20.13
2022-10-31T11:13:16.204Z,19.99
2022-10-31T11:14:16.206Z,20.13
2022-10-31T11:15:16.281Z,20.28
2022-10-31T11:16:16.178Z,20.43
2022-10-31T11:17:16.157Z,20.43
2022-10-31T11:18:16.188Z,20.28
2022-10-31T11:19:16.157Z,20.39
2022-10-31T11:20:18.883Z,20.40
2022-10-31T11:21:16.109Z,20.56
2022-10-31T11:22:16.099Z,20.40
2022-10-31T11:23:16.090Z,20.50
2022-10-31T11:24:16.079Z,20.44
2022-10-31T11:25:16.090Z,20.66
2022-10-31T11:26:16.059Z,20.85
2022-10-31T11:27:16.039Z,20.99
2022-10-31T11:28:16.028Z,20.90
2022-10-31T11:29:16.019Z,20.97
2022-10-31T11:30:16.011Z,20.88
2022-10-31T11:31:16.055Z,20.70
2022-10-31T11:32:15.989Z,20.74
2022-10-31T11:33:15.970Z,20.90
2022-10-31T11:35:13.100Z,21.24
2022-10-31T11:36:13.131Z,21.37
2022-10-31T11:37:13.084Z,21.33
2022-10-31T11:38:13.072Z,21.27
2022-10-31T11:39:13.050Z,20.88
2022-10-31T11:40:13.031Z,20.92
2022-10-31T11:41:13.029Z,20.90
2022-10-31T11:42:13.031Z,20.90
2022-10-31T11:43:12.993Z,20.85
2022-10-31T11:44:12.981Z,20.97
2022-10-31T11:45:12.972Z,21.00
2022-10-31T11:46:12.962Z,20.93
2022-10-31T11:47:12.943Z,20.95
2022-10-31T11:48:12.963Z,20.88
2022-10-31T11:49:12.923Z,20.87
2022-10-31T11:50:12.913Z,20.97
2022-10-31T11:51:12.904Z,21.02
2022-10-31T11:52:12.892Z,20.95
2022-10-31T11:53:12.881Z,20.75
2022-10-31T11:54:12.893Z,20.77
2022-10-31T11:55:12.857Z,20.84
2022-10-31T11:56:12.843Z,20.95
2022-10-31T11:57:12.834Z,21.14
2022-10-31T11:58:12.823Z,21.20
2022-10-31T11:59:12.815Z,21.35
2022-10-31T12:00:12.926Z,21.45
2022-10-31T12:01:12.810Z,21.42
2022-10-31T12:02:12.872Z,21.37
2022-10-31T12:03:12.765Z,21.40
2022-10-31T12:04:12.757Z,21.43
2022-10-31T12:05:12.744Z,21.40
2022-10-31T12:06:12.754Z,21.50
2022-10-31T12:07:12.745Z,21.61
2022-10-31T12:08:12.727Z,21.64
2022-10-31T12:09:12.695Z,21.72
2022-10-31T12:10:12.685Z,21.76
2022-10-31T12:11:12.675Z,21.77
2022-10-31T12:12:12.684Z,21.77
2022-10-31T12:13:12.655Z,21.75
2022-10-31T12:14:12.644Z,21.72
2022-10-31T12:15:12.634Z,21.62
2022-10-31T12:16:12.615Z,21.54
2022-10-31T12:17:12.627Z,21.58
2022-10-31T12:18:12.598Z,21.58
2022-10-31T12:19:12.589Z,21.54
2022-10-31T12:20:12.576Z,21.55
2022-10-31T12:21:12.567Z,21.51
2022-10-31T12:22:12.555Z,21.57
2022-10-31T12:23:12.568Z,21.58
2022-10-31T12:24:12.528Z,21.70
2022-10-31T12:25:12.517Z,21.73
2022-10-31T12:26:12.508Z,21.69
2022-10-31T12:27:12.496Z,21.76
2022-10-31T12:28:12.485Z,21.77
2022-10-31T12:29:12.487Z,21.76
2022-10-31T12:30:12.467Z,21.76
2022-10-31T12:31:12.450Z,21.88
2022-10-31T12:32:12.447Z,21.96
2022-10-31T12:33:12.419Z,22.07
2022-10-31T12:34:12.450Z,22.22
2022-10-31T12:35:12.399Z,22.26
2022-10-31T12:36:15.204Z,22.23
2022-10-31T12:37:12.379Z,22.00
2022-10-31T12:38:12.372Z,22.00
2022-10-31T12:39:12.360Z,22.07
2022-10-31T12:40:12.398Z,22.17
2022-10-31T12:41:12.329Z,22.25
2022-10-31T12:42:12.330Z,22.29
2022-10-31T12:43:12.319Z,22.33
2022-10-31T12:44:12.301Z,22.36
2022-10-31T12:45:12.309Z,22.50
2022-10-31T12:46:12.301Z,22.55
2022-10-31T12:47:12.274Z,22.50
2022-10-31T12:48:12.250Z,22.32
2022-10-31T12:49:12.248Z,22.26
2022-10-31T12:50:12.231Z,22.30
2022-10-31T12:51:12.221Z,22.36
2022-10-31T12:52:12.232Z,22.32
2022-10-31T12:53:12.239Z,22.33
2022-10-31T12:54:12.182Z,22.30
2022-10-31T12:55:12.183Z,22.35
2022-10-31T12:56:12.171Z,22.35
2022-10-31T12:57:12.183Z,22.33
2022-10-31T12:58:12.143Z,22.39
2022-10-31T12:59:12.133Z,22.41
2022-10-31T13:00:12.123Z,22.29